createdAt,value
2023-04-03T00:01:27.094Z,57.54
2023-04-03T00:03:56.643Z,57.10
2023-04-03T00:06:25.904Z,57.12
2023-04-03T00:08:55.535Z,56.46
2023-04-03T00:11:24.011Z,56.86
2023-04-03T00:13:52.124Z,56.83
2023-04-03T00:16:20.228Z,57.00
2023-04-03T00:18:48.726Z,57.21
2023-04-03T00:21:17.109Z,57.07
2023-04-03T00:23:45.326Z,57.17
2023-04-03T00:26:15.414Z,57.12
2023-04-03T00:28:44.029Z,56.40
2023-04-03T00:31:12.273Z,56.48
2023-04-03T00:33:40.887Z,56.34
2023-04-03T00:36:11.449Z,56.54
2023-04-03T00:38:40.064Z,56.97
2023-04-03T00:41:09.042Z,56.39
2023-04-03T00:43:38.712Z,56.56
2023-04-03T00:46:06.803Z,56.43
2023-04-03T00:48:41.097Z,56.76
2023-04-03T00:51:13.321Z,56.48
2023-04-03T00:53:48.115Z,56.20
2023-04-03T00:56:19.152Z,56.07
2023-04-03T00:58:54.590Z,55.88
2023-04-03T01:01:25.887Z,56.05
2023-04-03T01:03:54.773Z,56.00
2023-04-03T01:06:27.690Z,56.07
2023-04-03T01:08:57.054Z,56.43
2023-04-03T01:11:25.852Z,56.16
2023-04-03T01:13:55.885Z,56.40
2023-04-03T01:16:25.872Z,56.98
2023-04-03T01:18:54.092Z,57.15
2023-04-03T01:21:59.168Z,57.00
2023-04-03T01:24:36.291Z,58.03
2023-04-03T01:27:07.299Z,57.36
2023-04-03T01:29:37.861Z,57.12
2023-04-03T01:32:08.069Z,56.77
2023-04-03T01:34:36.574Z,56.94
2023-04-03T01:37:04.807Z,56.80
2023-04-03T01:39:32.812Z,56.82
2023-04-03T01:42:01.606Z,57.11
2023-04-03T01:44:30.522Z,57.23
2023-04-03T01:46:58.794Z,57.18
2023-04-03T01:49:29.235Z,56.94
2023-04-03T01:51:57.618Z,57.00
2023-04-03T01:54:25.800Z,56.93
2023-04-03T01:56:54.485Z,57.39
2023-04-03T01:59:22.801Z,56.79
2023-04-03T02:01:51.080Z,57.32
2023-04-03T02:04:19.421Z,57.45
2023-04-03T02:06:51.214Z,57.21
2023-04-03T02:09:19.603Z,57.21
2023-04-03T02:11:47.603Z,57.20
2023-04-03T02:14:15.701Z,57.26
2023-04-03T02:16:44.029Z,57.45
2023-04-03T02:19:12.572Z,57.63
2023-04-03T02:21:40.858Z,57.75
2023-04-03T02:24:10.295Z,57.45
2023-04-03T02:26:38.892Z,57.98
2023-04-03T02:29:07.047Z,57.19
2023-04-03T02:31:36.862Z,58.04
2023-04-03T02:34:06.580Z,57.07
2023-04-03T02:36:36.080Z,57.19
2023-04-03T02:39:05.369Z,57.16
2023-04-03T02:41:36.426Z,57.11
2023-04-03T02:44:07.509Z,57.18
2023-04-03T02:46:35.726Z,57.35
2023-04-03T02:49:04.191Z,57.25
2023-04-03T02:51:32.619Z,57.38
2023-04-03T02:54:00.866Z,57.66
2023-04-03T02:56:29.378Z,58.47
2023-04-03T02:58:59.424Z,57.96
2023-04-03T03:01:32.470Z,57.39
2023-04-03T03:04:01.533Z,57.27
2023-04-03T03:06:29.992Z,57.00
2023-04-03T03:08:57.997Z,57.26
2023-04-03T03:11:26.471Z,56.90
2023-04-03T03:13:54.717Z,57.23
2023-04-03T03:16:24.296Z,56.95
2023-04-03T03:18:52.526Z,57.30
2023-04-03T03:21:20.460Z,56.86
2023-04-03T03:23:48.529Z,56.50
2023-04-03T03:26:17.053Z,56.50
2023-04-03T03:28:45.029Z,56.21
2023-04-03T03:31:13.387Z,56.29
2023-04-03T03:33:43.476Z,56.44
2023-04-03T03:36:13.048Z,56.29
2023-04-03T03:38:41.450Z,55.79
2023-04-03T03:41:11.150Z,56.03
2023-04-03T03:43:40.259Z,55.70
2023-04-03T03:46:08.685Z,55.96
2023-04-03T03:48:36.744Z,55.94
2023-04-03T03:51:06.244Z,55.87
2023-04-03T03:53:34.941Z,55.68
2023-04-03T03:56:03.745Z,55.74
2023-04-03T03:58:32.172Z,55.75
2023-04-03T04:01:03.053Z,56.21
2023-04-03T04:03:31.939Z,56.51
2023-04-03T04:06:00.291Z,57.18
2023-04-03T04:08:30.017Z,56.61
2023-04-03T04:10:58.433Z,56.61
2023-04-03T04:13:26.530Z,57.12
2023-04-03T04:15:54.660Z,56.85
2023-04-03T04:18:23.597Z,57.34
2023-04-03T04:20:51.767Z,57.24
2023-04-03T04:23:20.807Z,57.19
2023-04-03T04:25:51.621Z,57.63
2023-04-03T04:28:20.464Z,57.69
2023-04-03T04:30:49.422Z,57.81
2023-04-03T04:33:18.100Z,58.76
2023-04-03T04:35:46.491Z,58.36
2023-04-03T04:38:15.090Z,58.81
2023-04-03T04:40:43.196Z,58.87
2023-04-03T04:43:15.414Z,59.17
2023-04-03T04:45:44.396Z,58.86
2023-04-03T04:48:13.382Z,58.84
2023-04-03T04:50:41.587Z,59.11
2023-04-03T04:53:10.150Z,58.19
2023-04-03T04:55:38.690Z,58.08
2023-04-03T04:58:07.139Z,58.30
2023-04-03T05:00:38.310Z,57.51
2023-04-03T05:03:07.009Z,57.87
2023-04-03T05:05:36.759Z,57.64
2023-04-03T05:08:05.915Z,57.91
2023-04-03T05:10:34.407Z,58.12
2023-04-03T05:13:03.565Z,58.38
2023-04-03T05:15:31.860Z,58.68
2023-04-03T05:18:01.734Z,58.61
2023-04-03T05:20:30.343Z,58.53
2023-04-03T05:22:59.462Z,59.01
2023-04-03T05:25:27.865Z,58.09
2023-04-03T05:27:56.840Z,57.88
2023-04-03T05:30:25.645Z,58.24
2023-04-03T05:32:54.692Z,58.41
2023-04-03T05:35:25.384Z,58.25
2023-04-03T05:37:54.011Z,57.91
2023-04-03T05:40:23.192Z,57.98
2023-04-03T05:42:52.648Z,57.80
2023-04-03T05:45:21.821Z,57.84
2023-04-03T05:47:50.624Z,58.54
2023-04-03T05:50:19.405Z,58.01
2023-04-03T05:52:54.680Z,57.65
2023-04-03T05:55:23.182Z,57.92
2023-04-03T05:57:52.086Z,57.47
2023-04-03T06:00:22.209Z,57.54
2023-04-03T06:02:51.769Z,57.59
2023-04-03T06:05:20.686Z,57.33
2023-04-03T06:07:50.581Z,57.24
2023-04-03T06:10:21.204Z,57.02
2023-04-03T06:12:49.469Z,56.88
2023-04-03T06:15:18.424Z,56.79
2023-04-03T06:17:47.363Z,56.92
2023-04-03T06:20:15.598Z,56.74
2023-04-03T06:22:43.840Z,56.64
2023-04-03T06:25:13.427Z,56.64
2023-04-03T06:27:42.792Z,56.85
2023-04-03T06:30:12.013Z,56.63
2023-04-03T06:32:40.392Z,56.71
2023-04-03T06:35:09.601Z,56.61
2023-04-03T06:37:37.944Z,56.66
2023-04-03T06:40:08.008Z,57.19
2023-04-03T06:42:36.548Z,56.38
2023-04-03T06:45:10.419Z,56.25
2023-04-03T06:47:38.737Z,56.22
2023-04-03T06:50:08.333Z,56.22
2023-04-03T06:52:36.827Z,56.05
2023-04-03T06:55:05.878Z,56.38
2023-04-03T06:57:34.069Z,55.95
2023-04-03T07:00:02.085Z,55.70
2023-04-03T07:02:31.863Z,55.36
2023-04-03T07:04:59.964Z,54.77
2023-04-03T07:07:28.111Z,55.12
2023-04-03T07:09:56.594Z,55.52
2023-04-03T07:12:24.774Z,55.08
2023-04-03T07:14:52.957Z,55.05
2023-04-03T07:17:21.449Z,54.45
2023-04-03T07:19:51.053Z,54.20
2023-04-03T07:22:19.658Z,53.65
2023-04-03T07:24:48.141Z,53.66
2023-04-03T07:27:16.634Z,53.80
2023-04-03T07:29:45.160Z,52.96
2023-04-03T07:32:13.510Z,52.73
2023-04-03T07:34:41.595Z,52.01
2023-04-03T07:37:11.529Z,52.99
2023-04-03T07:39:39.771Z,51.73
2023-04-03T07:42:08.337Z,51.67
2023-04-03T07:44:36.514Z,51.90
2023-04-03T07:47:05.022Z,51.43
2023-04-03T07:49:34.042Z,51.83
2023-04-03T07:52:02.200Z,50.49
2023-04-03T07:54:32.029Z,50.54
2023-04-03T07:57:00.412Z,50.64
2023-04-03T07:59:28.394Z,49.71
2023-04-03T08:01:57.091Z,51.08
2023-04-03T08:04:26.176Z,50.70
2023-04-03T08:06:54.385Z,49.55
2023-04-03T08:09:22.401Z,49.30
2023-04-03T08:11:54.174Z,50.62
2023-04-03T08:14:22.417Z,50.59
2023-04-03T08:16:50.891Z,50.59
2023-04-03T08:19:26.263Z,50.85
2023-04-03T08:21:56.157Z,49.74
2023-04-03T08:24:24.448Z,48.99
2023-04-03T08:26:53.995Z,49.14
2023-04-03T08:29:22.923Z,48.37
2023-04-03T08:31:51.731Z,48.97
2023-04-03T08:34:20.663Z,46.04
2023-04-03T08:36:49.298Z,46.54
2023-04-03T08:39:17.377Z,47.99
2023-04-03T08:41:48.969Z,47.69
2023-04-03T08:44:27.724Z,49.06
2023-04-03T08:47:10.419Z,47.83
2023-04-03T08:49:48.224Z,46.84
2023-04-03T08:52:20.597Z,48.11
2023-04-03T08:54:55.950Z,46.58
2023-04-03T08:57:31.539Z,45.90
2023-04-03T09:00:05.619Z,46.61
2023-04-03T09:02:36.874Z,45.16
2023-04-03T09:05:14.857Z,47.08
2023-04-03T09:07:49.346Z,44.33
2023-04-03T09:10:29.266Z,46.56
2023-04-03T09:13:03.446Z,45.65
2023-04-03T09:15:39.233Z,45.78
2023-04-03T09:18:17.644Z,46.95
2023-04-03T09:20:53.373Z,45.29
2023-04-03T09:23:27.577Z,44.67
2023-04-03T09:26:04.774Z,44.17
2023-04-03T09:28:43.123Z,43.01
2023-04-03T09:31:26.270Z,42.83
2023-04-03T09:33:58.701Z,43.26
2023-04-03T09:36:41.607Z,46.74
2023-04-03T09:39:15.547Z,44.34
2023-04-03T09:41:44.727Z,45.18
2023-04-03T09:44:32.344Z,44.43
2023-04-03T09:47:21.046Z,40.88
2023-04-03T09:49:49.193Z,42.48
2023-04-03T09:52:22.578Z,44.18
2023-04-03T09:54:51.338Z,41.82
2023-04-03T09:57:20.203Z,42.55
2023-04-03T09:59:58.971Z,45.74
2023-04-03T10:02:40.777Z,43.97
2023-04-03T10:05:42.031Z,41.08
2023-04-03T10:08:21.541Z,39.36
2023-04-03T10:11:07.117Z,42.60
2023-04-03T10:13:45.175Z,44.49
2023-04-03T10:16:23.346Z,41.47
2023-04-03T10:19:04.107Z,44.31
2023-04-03T10:21:43.781Z,41.39
2023-04-03T10:24:15.907Z,43.05
2023-04-03T10:26:54.701Z,41.44
2023-04-03T10:29:34.066Z,41.58
2023-04-03T10:32:17.725Z,42.18
2023-04-03T10:35:02.321Z,39.75
2023-04-03T10:37:54.142Z,43.83
2023-04-03T10:40:32.248Z,40.91
2023-04-03T10:43:08.627Z,40.99
2023-04-03T10:46:03.457Z,42.88
2023-04-03T10:48:46.964Z,40.59
2023-04-03T10:51:25.888Z,43.01
2023-04-03T10:53:59.887Z,41.61
2023-04-03T10:56:34.312Z,42.31
2023-04-03T10:59:15.204Z,41.42
2023-04-03T11:01:46.283Z,39.58
2023-04-03T11:04:18.137Z,42.66
2023-04-03T11:06:52.275Z,38.45
2023-04-03T11:09:26.509Z,41.74
2023-04-03T11:12:00.151Z,41.90
2023-04-03T11:14:31.193Z,41.52
2023-04-03T11:17:23.962Z,40.29
2023-04-03T11:20:01.494Z,36.63
2023-04-03T11:22:34.195Z,39.09
2023-04-03T11:25:08.387Z,40.96
2023-04-03T11:27:43.880Z,38.01
2023-04-03T11:30:20.703Z,39.23
2023-04-03T11:33:05.784Z,38.38
2023-04-03T11:35:36.386Z,36.23
2023-04-03T11:38:08.259Z,40.63
2023-04-03T11:40:39.919Z,40.65
2023-04-03T11:43:23.396Z,38.13
2023-04-03T11:45:56.592Z,37.15
2023-04-03T11:48:51.050Z,41.00
2023-04-03T11:51:43.731Z,37.13
2023-04-03T11:54:45.657Z,35.52
2023-04-03T11:57:47.321Z,35.65
2023-04-03T12:00:55.079Z,34.27
2023-04-03T12:03:54.033Z,34.82
2023-04-03T12:07:05.252Z,36.05
2023-04-03T12:09:37.050Z,35.95
2023-04-03T12:12:37.715Z,38.58
2023-04-03T12:15:48.265Z,36.33
2023-04-03T12:18:53.091Z,35.42
2023-04-03T12:21:25.049Z,37.02
2023-04-03T12:24:05.270Z,39.33
2023-04-03T12:26:48.017Z,36.73
2023-04-03T12:29:22.877Z,40.08
2023-04-03T12:32:14.703Z,39.33
2023-04-03T12:34:57.928Z,39.26
2023-04-03T12:37:42.591Z,37.23
2023-04-03T12:40:19.564Z,36.36
2023-04-03T12:43:05.380Z,40.05
2023-04-03T12:45:43.722Z,36.15
2023-04-03T12:48:18.424Z,37.26
2023-04-03T12:50:48.628Z,38.76
2023-04-03T12:53:21.391Z,40.19
2023-04-03T12:55:49.556Z,39.93
2023-04-03T12:58:22.964Z,40.37
2023-04-03T13:01:02.945Z,40.53
2023-04-03T13:03:31.989Z,37.08
2023-04-03T13:06:02.887Z,41.01
2023-04-03T13:08:33.447Z,39.95
2023-04-03T13:11:05.978Z,39.11
2023-04-03T13:13:34.260Z,39.85
2023-04-03T13:16:11.389Z,40.86
2023-04-03T13:18:40.882Z,39.15
2023-04-03T13:21:17.437Z,40.64
2023-04-03T13:23:55.230Z,38.23
2023-04-03T13:26:30.256Z,39.15
2023-04-03T13:29:01.709Z,38.79
2023-04-03T13:31:33.689Z,39.41
2023-04-03T13:34:06.824Z,37.65
2023-04-03T13:36:36.974Z,37.58
2023-04-03T13:39:09.458Z,38.49
2023-04-03T13:41:39.795Z,39.04
2023-04-03T13:44:20.667Z,39.16
2023-04-03T13:46:49.664Z,35.69
2023-04-03T13:49:23.680Z,40.32
2023-04-03T13:52:04.425Z,39.39
2023-04-03T13:54:39.232Z,39.58
2023-04-03T13:57:15.634Z,38.72
2023-04-03T13:59:45.514Z,36.36
2023-04-03T14:02:19.270Z,40.79
2023-04-03T14:04:54.224Z,40.13
2023-04-03T14:07:22.486Z,39.55
2023-04-03T14:09:52.926Z,39.90
2023-04-03T14:12:31.743Z,40.06
2023-04-03T14:15:06.576Z,38.71
2023-04-03T14:17:34.758Z,40.00
2023-04-03T14:20:03.385Z,38.40
2023-04-03T14:22:34.618Z,40.17
2023-04-03T14:25:05.109Z,38.04
2023-04-03T14:27:37.223Z,37.71
2023-04-03T14:30:09.870Z,37.37
2023-04-03T14:32:38.168Z,39.86
2023-04-03T14:35:07.718Z,39.97
2023-04-03T14:37:36.436Z,38.53
2023-04-03T14:40:08.400Z,40.36
2023-04-03T14:42:39.023Z,38.76
2023-04-03T14:45:09.992Z,40.74
2023-04-03T14:47:44.587Z,39.38
2023-04-03T14:50:16.796Z,38.44
2023-04-03T14:52:46.397Z,40.94
2023-04-03T14:55:18.047Z,41.38
2023-04-03T14:57:47.547Z,40.41
2023-04-03T15:00:18.754Z,39.92
2023-04-03T15:02:48.893Z,41.42
2023-04-03T15:05:18.285Z,40.50
2023-04-03T15:07:51.143Z,40.46
2023-04-03T15:10:25.913Z,40.04
2023-04-03T15:12:55.041Z,40.60
2023-04-03T15:15:25.204Z,39.14
2023-04-03T15:17:56.205Z,40.47
2023-04-03T15:20:26.439Z,40.79
2023-04-03T15:22:54.859Z,41.02
2023-04-03T15:25:24.749Z,41.09
2023-04-03T15:27:53.339Z,40.85
2023-04-03T15:30:22.577Z,40.99
2023-04-03T15:32:51.805Z,41.76
2023-04-03T15:35:21.102Z,41.19
2023-04-03T15:37:49.959Z,42.44
2023-04-03T15:40:18.349Z,41.48
2023-04-03T15:42:48.594Z,41.26
2023-04-03T15:45:16.877Z,41.24
2023-04-03T15:47:54.862Z,40.61
2023-04-03T15:50:24.900Z,40.96
2023-04-03T15:52:55.436Z,41.36
2023-04-03T15:55:24.382Z,41.30
2023-04-03T15:57:54.244Z,40.57
2023-04-03T16:00:23.188Z,41.33
2023-04-03T16:02:54.525Z,40.86
2023-04-03T16:05:23.145Z,40.59
2023-04-03T16:07:52.146Z,40.42
2023-04-03T16:10:21.773Z,40.71
2023-04-03T16:12:49.977Z,40.71
2023-04-03T16:15:19.999Z,40.20
2023-04-03T16:17:49.073Z,41.04
2023-04-03T16:20:17.840Z,41.22
2023-04-03T16:22:46.589Z,40.77
2023-04-03T16:25:14.837Z,41.25
2023-04-03T16:27:43.077Z,41.29
2023-04-03T16:30:12.412Z,41.70
2023-04-03T16:32:42.614Z,41.58
2023-04-03T16:35:12.553Z,41.13
2023-04-03T16:37:43.006Z,42.38
2023-04-03T16:40:13.127Z,42.81
2023-04-03T16:42:42.458Z,42.80
2023-04-03T16:45:11.424Z,43.31
2023-04-03T16:47:39.742Z,43.35
2023-04-03T16:50:10.822Z,43.68
2023-04-03T16:52:39.161Z,43.93
2023-04-03T16:55:08.197Z,43.94
2023-04-03T16:57:36.390Z,43.96
2023-04-03T17:00:05.529Z,43.31
2023-04-03T17:02:36.223Z,43.31
2023-04-03T17:05:05.390Z,43.84
2023-04-03T17:07:35.464Z,43.98
2023-04-03T17:10:03.629Z,43.88
2023-04-03T17:12:31.930Z,42.99
2023-04-03T17:15:00.636Z,42.50
2023-04-03T17:17:28.947Z,42.94
2023-04-03T17:19:57.921Z,43.47
2023-04-03T17:22:26.481Z,43.54
2023-04-03T17:24:55.998Z,43.46
2023-04-03T17:27:24.304Z,42.90
2023-04-03T17:29:52.846Z,42.38
2023-04-03T17:32:21.051Z,41.83
2023-04-03T17:34:49.174Z,42.35
2023-04-03T17:37:17.568Z,42.57
2023-04-03T17:39:47.009Z,42.62
2023-04-03T17:42:17.030Z,43.10
2023-04-03T17:44:45.608Z,43.38
2023-04-03T17:47:14.846Z,43.21
2023-04-03T17:49:51.599Z,43.55
2023-04-03T17:52:20.194Z,43.83
2023-04-03T17:54:49.742Z,44.42
2023-04-03T17:57:20.459Z,44.96
2023-04-03T17:59:49.035Z,44.67
2023-04-03T18:02:17.518Z,44.20
2023-04-03T18:04:46.146Z,44.18
2023-04-03T18:07:14.319Z,43.72
2023-04-03T18:09:42.905Z,43.96
2023-04-03T18:12:11.653Z,44.10
2023-04-03T18:14:42.159Z,44.05
2023-04-03T18:17:11.007Z,44.22
2023-04-03T18:19:39.221Z,44.40
2023-04-03T18:22:11.143Z,44.23
2023-04-03T18:24:40.012Z,44.30
2023-04-03T18:27:12.801Z,44.46
2023-04-03T18:29:46.009Z,44.30
2023-04-03T18:32:16.249Z,43.41
2023-04-03T18:34:45.039Z,43.20
2023-04-03T18:37:13.619Z,42.71
2023-04-03T18:39:41.802Z,42.90
2023-04-03T18:42:13.257Z,42.64
2023-04-03T18:44:44.219Z,43.17
2023-04-03T18:47:13.229Z,43.70
2023-04-03T18:49:42.744Z,43.79
2023-04-03T18:52:11.957Z,44.26
2023-04-03T18:54:40.988Z,44.73
2023-04-03T18:57:09.509Z,43.89
2023-04-03T18:59:37.911Z,44.36
2023-04-03T19:02:09.123Z,44.89
2023-04-03T19:04:37.730Z,44.07
2023-04-03T19:07:06.637Z,43.33
2023-04-03T19:09:38.730Z,42.74
2023-04-03T19:12:07.850Z,41.37
2023-04-03T19:14:36.363Z,42.97
2023-04-03T19:17:07.402Z,42.90
2023-04-03T19:19:37.385Z,42.41
2023-04-03T19:22:06.980Z,42.71
2023-04-03T19:24:35.852Z,42.79
2023-04-03T19:27:04.282Z,42.58
2023-04-03T19:29:32.432Z,43.17
2023-04-03T19:32:01.816Z,43.41
2023-04-03T19:34:29.884Z,43.16
2023-04-03T19:36:59.456Z,43.52
2023-04-03T19:39:29.928Z,43.65
2023-04-03T19:41:58.095Z,44.47
2023-04-03T19:44:26.711Z,44.44
2023-04-03T19:46:55.510Z,44.21
2023-04-03T19:49:24.276Z,43.91
2023-04-03T19:51:53.492Z,44.04
2023-04-03T19:54:24.535Z,44.20
2023-04-03T19:56:52.756Z,44.36
2023-04-03T19:59:20.841Z,44.39
2023-04-03T20:01:49.546Z,44.54
2023-04-03T20:04:17.977Z,44.71
2023-04-03T20:06:46.135Z,44.88
2023-04-03T20:09:14.216Z,44.76
2023-04-03T20:11:47.200Z,44.78
2023-04-03T20:14:16.690Z,44.57
2023-04-03T20:16:47.246Z,44.61
2023-04-03T20:19:15.626Z,43.76
2023-04-03T20:21:43.914Z,44.12
2023-04-03T20:24:14.429Z,44.54
2023-04-03T20:26:47.338Z,44.44
2023-04-03T20:29:16.805Z,44.65
2023-04-03T20:31:45.382Z,44.59
2023-04-03T20:34:14.747Z,44.20
2023-04-03T20:36:49.120Z,44.31
2023-04-03T20:39:19.500Z,44.86
2023-04-03T20:41:49.738Z,45.22
2023-04-03T20:44:19.891Z,45.38
2023-04-03T20:46:53.372Z,45.28
2023-04-03T20:49:23.049Z,45.48
2023-04-03T20:51:52.311Z,45.34
2023-04-03T20:54:20.644Z,45.88
2023-04-03T20:56:50.676Z,45.49
2023-04-03T20:59:20.707Z,45.20
2023-04-03T21:01:50.054Z,44.97
2023-04-03T21:04:26.587Z,45.01
2023-04-03T21:07:32.736Z,44.94
2023-04-03T21:10:38.972Z,45.13
2023-04-03T21:13:44.817Z,45.13
2023-04-03T21:16:13.379Z,45.60
2023-04-03T21:18:59.549Z,46.35
2023-04-03T21:21:28.789Z,47.21
2023-04-03T21:23:57.545Z,47.53
2023-04-03T21:26:27.669Z,47.50
2023-04-03T21:28:56.576Z,47.31
2023-04-03T21:31:25.797Z,46.93
2023-04-03T21:33:55.709Z,46.67
2023-04-03T21:36:24.393Z,47.08
2023-04-03T21:38:59.332Z,47.21
2023-04-03T21:41:28.002Z,47.45
2023-04-03T21:43:57.135Z,47.30
2023-04-03T21:46:25.734Z,46.76
2023-04-03T21:48:56.269Z,47.10
2023-04-03T21:51:24.853Z,46.98
2023-04-03T21:53:53.352Z,46.95
2023-04-03T21:56:22.396Z,46.66
2023-04-03T21:58:51.026Z,46.64
2023-04-03T22:01:20.226Z,46.63
2023-04-03T22:03:48.987Z,46.83
2023-04-03T22:06:18.804Z,46.70
2023-04-03T22:08:47.007Z,46.54
2023-04-03T22:11:16.703Z,46.48
2023-04-03T22:13:45.759Z,46.88
2023-04-03T22:16:15.060Z,47.39
2023-04-03T22:18:43.620Z,47.72
2023-04-03T22:21:11.762Z,47.41
2023-04-03T22:23:41.302Z,47.32
2023-04-03T22:26:12.263Z,47.62
2023-04-03T22:28:42.311Z,47.79
2023-04-03T22:31:11.919Z,47.80
2023-04-03T22:33:41.154Z,47.99
2023-04-03T22:36:10.988Z,48.25
2023-04-03T22:38:43.042Z,48.06
2023-04-03T22:41:11.841Z,48.06
2023-04-03T22:43:41.036Z,48.22
2023-04-03T22:46:10.450Z,48.41
2023-04-03T22:48:42.859Z,48.63
2023-04-03T22:51:14.204Z,48.22
2023-04-03T22:53:45.269Z,48.03
2023-04-03T22:56:14.661Z,48.28
2023-04-03T22:58:45.264Z,48.09
2023-04-03T23:01:16.713Z,48.00
2023-04-03T23:03:46.574Z,48.60
2023-04-03T23:06:15.826Z,48.30
2023-04-03T23:08:45.252Z,48.91
2023-04-03T23:11:13.309Z,49.50
2023-04-03T23:13:43.598Z,49.53
2023-04-03T23:16:14.029Z,49.45
2023-04-03T23:18:43.881Z,49.12
2023-04-03T23:21:12.082Z,49.36
2023-04-03T23:23:40.362Z,49.17
2023-04-03T23:26:11.038Z,49.34
2023-04-03T23:28:39.297Z,49.24
2023-04-03T23:31:08.205Z,49.27
2023-04-03T23:33:39.556Z,49.47
2023-04-03T23:36:09.124Z,49.78
2023-04-03T23:38:38.202Z,49.92
2023-04-03T23:41:06.616Z,50.74
2023-04-03T23:43:37.186Z,49.92
2023-04-03T23:46:05.604Z,50.41
2023-04-03T23:48:33.924Z,50.51
2023-04-03T23:51:02.079Z,50.64
2023-04-03T23:53:30.474Z,50.05
2023-04-03T23:55:58.770Z,49.59
2023-04-03T23:58:27.149Z,49.56
